Time;durP1;ratioP1;P1;durP2;ratioP2;P2;SDS_P1;SDS_P2;PMS_P1;PMS_P2;Temp;Humidity;BMP_temperature;BMP_pressure;BME280_temperature;BME280_humidity;BME280_pressure;Samples;Min_cycle;Max_cycle;Signal;HPM_P1;HPM_P2
2021/05/10 00:02:04;;;;;;;14.03;12.57;;;17.00;83.20;;;;;;5134369;27;20043;-72
2021/05/10 00:04:30;;;;;;;13.50;12.13;;;17.00;83.70;;;;;;5134025;27;20157;-71
2021/05/10 00:06:57;;;;;;;13.93;11.60;;;17.00;84.00;;;;;;5134715;27;20050;-71
2021/05/10 00:09:23;;;;;;;12.57;11.27;;;17.00;84.20;;;;;;5133678;27;20530;-72
2021/05/10 00:11:50;;;;;;;12.97;11.70;;;17.00;84.20;;;;;;5134697;27;20123;-71
2021/05/10 00:14:26;;;;;;;15.37;11.60;;;16.90;84.40;;;;;;5134040;27;20043;-72
2021/05/10 00:16:52;;;;;;;11.70;10.50;;;16.90;84.80;;;;;;5133917;27;20046;-71
2021/05/10 00:19:23;;;;;;;14.10;11.07;;;16.80;85.10;;;;;;5134485;27;20043;-72
2021/05/10 00:21:50;;;;;;;14.37;11.97;;;16.70;85.30;;;;;;5134232;27;20126;-71
2021/05/10 00:24:15;;;;;;;13.27;11.37;;;16.70;85.80;;;;;;5133718;27;20138;-71
2021/05/10 00:26:41;;;;;;;12.10;10.83;;;16.60;86.00;;;;;;5134163;27;20118;-72
2021/05/10 00:29:07;;;;;;;15.97;12.43;;;16.50;86.60;;;;;;5134124;27;20051;-71
2021/05/10 00:31:37;;;;;;;14.47;11.70;;;16.40;86.60;;;;;;5132195;27;20570;-71
2021/05/10 00:34:03;;;;;;;13.70;12.30;;;16.40;86.80;;;;;;5133969;27;20141;-71
2021/05/10 00:36:28;;;;;;;15.17;13.37;;;16.30;86.80;;;;;;5134165;27;20049;-72
2021/05/10 00:38:54;;;;;;;14.97;12.77;;;16.30;86.90;;;;;;5133496;27;20058;-71
2021/05/10 00:41:19;;;;;;;14.97;13.40;;;16.20;87.30;;;;;;5134023;27;20448;-71
2021/05/10 00:43:45;;;;;;;14.67;13.27;;;16.20;87.50;;;;;;5133540;27;20047;-71
2021/05/10 00:46:11;;;;;;;13.70;12.33;;;16.20;87.70;;;;;;5133496;27;20054;-71
2021/05/10 00:48:36;;;;;;;14.80;13.10;;;16.10;87.90;;;;;;5133932;27;20047;-71
2021/05/10 00:51:06;;;;;;;14.87;12.43;;;16.10;87.80;;;;;;5133922;27;20066;-71
2021/05/10 00:53:32;;;;;;;13.97;12.57;;;16.10;87.90;;;;;;5132919;27;20765;-71
2021/05/10 00:55:58;;;;;;;14.27;12.87;;;16.10;88.20;;;;;;5133260;27;20047;-71
2021/05/10 00:58:23;;;;;;;14.40;12.90;;;16.00;88.30;;;;;;5133523;27;20043;-71
2021/05/10 01:00:49;;;;;;;14.03;12.73;;;16.00;88.60;;;;;;5132860;27;20148;-71
2021/05/10 01:03:15;;;;;;;15.60;14.03;;;16.00;88.80;;;;;;5133465;27;20115;-71
2021/05/10 01:05:44;;;;;;;15.27;13.77;;;16.00;88.80;;;;;;5132787;27;20450;-71
2021/05/10 01:08:10;;;;;;;15.73;14.23;;;15.90;88.70;;;;;;5133915;27;20047;-71
2021/05/10 01:10:36;;;;;;;16.47;13.77;;;15.90;89.00;;;;;;5133416;27;20039;-72
2021/05/10 01:13:03;;;;;;;15.47;13.97;;;15.80;89.10;;;;;;5132604;27;20437;-71
2021/05/10 01:15:30;;;;;;;17.57;14.10;;;15.80;89.30;;;;;;5133306;27;20047;-71
2021/05/10 01:18:16;;;;;;;15.43;13.83;;;15.80;89.40;;;;;;5133335;27;20055;-71
2021/05/10 01:20:42;;;;;;;13.60;12.30;;;15.80;89.60;;;;;;5132526;27;20043;-71
2021/05/10 01:23:08;;;;;;;16.27;13.93;;;15.80;89.50;;;;;;5133339;27;20043;-71
2021/05/10 01:25:34;;;;;;;15.90;14.23;;;15.80;89.50;;;;;;5133201;27;20049;-71
2021/05/10 01:28:00;;;;;;;15.13;13.60;;;15.80;89.30;;;;;;5132421;27;20129;-71
2021/05/10 01:30:37;;;;;;;17.03;15.40;;;15.80;89.20;;;;;;5133029;27;20426;-71
2021/05/10 01:33:05;;;;;;;15.10;13.60;;;15.80;89.60;;;;;;5132751;27;20096;-71
2021/05/10 01:35:37;;;;;;;16.27;14.30;;;15.70;89.80;;;;;;5132277;27;20047;-71
2021/05/10 01:38:03;;;;;;;14.53;12.87;;;15.70;89.80;;;;;;5132931;27;20057;-71
2021/05/10 01:40:29;;;;;;;14.97;13.47;;;15.80;89.80;;;;;;5132853;27;20047;-71
2021/05/10 01:42:56;;;;;;;14.63;13.13;;;15.80;89.60;;;;;;5131812;27;20050;-71
2021/05/10 01:45:21;;;;;;;16.00;14.40;;;15.80;89.40;;;;;;5132465;27;20535;-71
2021/05/10 01:48:01;;;;;;;14.13;12.70;;;15.90;89.30;;;;;;5131979;27;20055;-71
2021/05/10 01:50:37;;;;;;;16.63;14.90;;;15.90;89.40;;;;;;5132842;27;20056;-71
2021/05/10 01:53:04;;;;;;;15.47;13.87;;;15.80;90.10;;;;;;5132718;27;20051;-71
2021/05/10 01:55:30;;;;;;;16.23;14.47;;;15.80;89.50;;;;;;5131231;27;20540;-71
2021/05/10 01:57:57;;;;;;;16.83;14.37;;;15.70;89.70;;;;;;5132615;27;20047;-71
2021/05/10 02:00:26;;;;;;;15.80;14.30;;;15.60;90.00;;;;;;5132552;27;20058;-71
2021/05/10 02:02:58;;;;;;;15.07;13.57;;;15.60;90.10;;;;;;5131828;27;20039;-71
2021/05/10 02:05:24;;;;;;;15.88;14.18;;;15.50;90.20;;;;;;5132729;27;20418;-71
2021/05/10 02:07:54;;;;;;;16.90;15.23;;;15.50;90.30;;;;;;5132647;27;20046;-71
2021/05/10 02:10:23;;;;;;;17.27;14.30;;;15.50;90.40;;;;;;5132052;27;20055;-71
2021/05/10 02:12:56;;;;;;;16.43;14.87;;;15.40;90.40;;;;;;5132453;27;20043;-71
2021/05/10 02:15:24;;;;;;;15.83;14.00;;;15.40;90.50;;;;;;5132151;27;20108;-71
2021/05/10 02:17:50;;;;;;;17.67;15.87;;;15.50;90.50;;;;;;5131619;27;20074;-71
2021/05/10 02:20:17;;;;;;;18.73;16.53;;;15.50;90.50;;;;;;5132573;28;20051;-71
2021/05/10 02:23:03;;;;;;;18.33;16.50;;;15.50;90.40;;;;;;5132542;27;20550;-71
2021/05/10 02:25:36;;;;;;;18.43;16.53;;;15.50;90.30;;;;;;5132490;27;20103;-71
2021/05/10 02:28:05;;;;;;;18.97;17.07;;;15.60;90.20;;;;;;5132136;27;20476;-71
2021/05/10 02:30:31;;;;;;;18.10;15.30;;;15.70;90.10;;;;;;5131576;27;20085;-71
2021/05/10 02:32:58;;;;;;;18.43;16.50;;;15.70;90.00;;;;;;5132279;27;20104;-71
2021/05/10 02:35:45;;;;;;;19.43;17.23;;;15.70;90.00;;;;;;5132253;27;20047;-71
2021/05/10 02:38:13;;;;;;;18.40;16.60;;;15.70;90.00;;;;;;5131415;27;20070;-71
2021/05/10 02:40:39;;;;;;;18.73;16.77;;;15.70;90.10;;;;;;5132721;27;20050;-71
2021/05/10 02:43:21;;;;;;;18.93;16.87;;;15.70;90.10;;;;;;5131832;27;20479;-71
2021/05/10 02:45:47;;;;;;;18.13;16.03;;;15.70;90.10;;;;;;5131349;27;20039;-71
2021/05/10 02:48:13;;;;;;;17.90;16.13;;;15.70;90.20;;;;;;5132281;27;20059;-72
2021/05/10 02:50:40;;;;;;;18.73;16.73;;;15.70;90.20;;;;;;5132356;27;20107;-71
2021/05/10 02:53:06;;;;;;;17.37;15.40;;;15.70;90.30;;;;;;5131603;27;20142;-71
2021/05/10 02:55:31;;;;;;;18.17;16.40;;;15.70;90.30;;;;;;5133577;27;20093;-71
2021/05/10 02:57:57;;;;;;;19.70;17.07;;;15.70;90.40;;;;;;5136079;27;20051;-71
2021/05/10 03:00:25;;;;;;;18.93;17.13;;;15.60;90.40;;;;;;5135052;27;20509;-71
2021/05/10 03:02:51;;;;;;;18.30;16.50;;;15.60;90.50;;;;;;5136009;27;20096;-71
2021/05/10 03:05:21;;;;;;;18.13;16.33;;;15.60;90.50;;;;;;5135250;27;20047;-71
2021/05/10 03:07:47;;;;;;;21.17;17.47;;;15.60;90.50;;;;;;5135938;27;20051;-71
2021/05/10 03:10:15;;;;;;;19.07;16.93;;;15.50;90.60;;;;;;5135761;27;20043;-71
2021/05/10 03:12:43;;;;;;;19.30;17.40;;;15.50;90.70;;;;;;5135142;27;20072;-71
2021/05/10 03:15:11;;;;;;;19.80;17.83;;;15.50;90.80;;;;;;5135765;27;20058;-71
2021/05/10 03:17:38;;;;;;;20.43;18.37;;;15.50;90.90;;;;;;5135731;27;20050;-71
2021/05/10 03:20:06;;;;;;;20.43;18.23;;;15.40;90.90;;;;;;5134802;27;20138;-70
2021/05/10 03:22:32;;;;;;;20.47;18.37;;;15.40;90.90;;;;;;5135721;27;20408;-71
2021/05/10 03:24:58;;;;;;;19.77;17.87;;;15.40;90.90;;;;;;5135561;27;20114;-71
2021/05/10 03:27:24;;;;;;;20.00;18.00;;;15.40;90.90;;;;;;5134798;27;20051;-71
2021/05/10 03:29:49;;;;;;;21.00;18.03;;;15.40;90.90;;;;;;5135116;27;20475;-71
2021/05/10 03:32:15;;;;;;;21.30;19.00;;;15.50;90.90;;;;;;5135192;27;20047;-71
2021/05/10 03:34:41;;;;;;;19.80;17.87;;;15.50;90.90;;;;;;5134654;27;20051;-71
2021/05/10 03:37:06;;;;;;;20.07;17.97;;;15.50;90.90;;;;;;5135792;27;20053;-70
2021/05/10 03:39:32;;;;;;;20.53;17.87;;;15.40;90.90;;;;;;5135288;27;20142;-70
2021/05/10 03:41:58;;;;;;;18.80;16.97;;;15.40;91.00;;;;;;5134221;27;20070;-71
2021/05/10 03:44:24;;;;;;;20.90;18.80;;;15.40;91.00;;;;;;5134835;27;20487;-71
2021/05/10 03:46:50;;;;;;;21.40;19.30;;;15.40;91.00;;;;;;5134833;27;20118;-71
2021/05/10 03:49:15;;;;;;;20.27;18.47;;;15.40;91.10;;;;;;5134379;27;20043;-71
2021/05/10 03:51:41;;;;;;;22.53;20.23;;;15.40;91.10;;;;;;5135105;27;20067;-71
2021/05/10 03:54:07;;;;;;;21.47;19.27;;;15.40;91.10;;;;;;5135282;27;20051;-70
2021/05/10 03:56:34;;;;;;;22.17;19.87;;;15.40;91.10;;;;;;5134040;27;20051;-70
2021/05/10 03:59:00;;;;;;;23.00;20.73;;;15.40;91.20;;;;;;5134599;27;20061;-71
2021/05/10 04:01:25;;;;;;;23.17;20.87;;;15.40;91.20;;;;;;5134824;27;20485;-70
2021/05/10 04:14:33;;;;;;;24.23;21.57;;;15.30;91.70;;;;;;5134396;27;20063;-71
2021/05/10 04:16:59;;;;;;;23.60;21.23;;;15.30;91.80;;;;;;5133886;27;20088;-71
2021/05/10 04:19:25;;;;;;;23.67;21.27;;;15.30;91.80;;;;;;5134322;27;20053;-70
2021/05/10 04:21:50;;;;;;;23.17;21.00;;;15.30;91.80;;;;;;5134519;27;20122;-71
2021/05/10 04:24:16;;;;;;;23.60;21.10;;;15.30;91.80;;;;;;5133456;27;20100;-71
2021/05/10 04:26:42;;;;;;;20.80;18.87;;;15.30;91.80;;;;;;5134016;27;20499;-71
2021/05/10 04:29:07;;;;;;;25.43;21.80;;;15.40;91.80;;;;;;5134421;27;20133;-70
2021/05/10 04:31:33;;;;;;;24.20;21.50;;;15.40;91.80;;;;;;5133449;27;20055;-71
2021/05/10 04:33:59;;;;;;;23.23;21.00;;;15.40;91.80;;;;;;5134118;27;20487;-71
2021/05/10 04:36:24;;;;;;;22.60;20.40;;;15.50;91.80;;;;;;5134109;27;20483;-71
2021/05/10 04:38:51;;;;;;;22.77;20.37;;;15.50;91.80;;;;;;5133028;27;20129;-70
2021/05/10 04:41:17;;;;;;;23.40;21.07;;;15.50;91.80;;;;;;5133790;27;20079;-70
2021/05/10 04:43:42;;;;;;;23.60;21.13;;;15.50;91.80;;;;;;5133264;27;20469;-71
2021/05/10 04:46:08;;;;;;;22.27;20.00;;;15.50;91.80;;;;;;5134162;27;20098;-70
2021/05/10 04:48:34;;;;;;;22.70;20.43;;;15.50;91.80;;;;;;5133675;27;20583;-70
2021/05/10 04:50:59;;;;;;;23.97;21.47;;;15.50;91.80;;;;;;5133209;27;20102;-70
2021/05/10 04:53:27;;;;;;;23.30;20.80;;;15.50;91.90;;;;;;5133569;27;20047;-70
2021/05/10 04:55:53;;;;;;;22.57;20.17;;;15.50;91.80;;;;;;5133535;27;20058;-71
2021/05/10 04:58:19;;;;;;;23.63;19.77;;;15.50;91.90;;;;;;5133023;27;20138;-71
2021/05/10 05:00:44;;;;;;;22.33;20.03;;;15.50;92.00;;;;;;5133427;27;20407;-71
2021/05/10 05:03:10;;;;;;;21.33;19.07;;;15.50;92.00;;;;;;5133724;27;20407;-71
2021/05/10 05:05:35;;;;;;;19.10;17.30;;;15.60;92.00;;;;;;5132823;27;20043;-70
2021/05/10 05:08:01;;;;;;;17.93;16.13;;;15.60;92.00;;;;;;5133152;27;20043;-71
2021/05/10 05:10:27;;;;;;;18.13;16.23;;;15.70;91.80;;;;;;5133303;27;20055;-71
2021/05/10 05:12:53;;;;;;;17.33;15.53;;;15.80;91.60;;;;;;5132709;27;20480;-71
2021/05/10 05:15:20;;;;;;;16.43;14.83;;;15.80;91.50;;;;;;5133139;27;20400;-71
2021/05/10 05:17:45;;;;;;;18.73;16.83;;;15.90;91.40;;;;;;5132633;27;20039;-71
2021/05/10 05:20:13;;;;;;;18.60;16.70;;;16.00;91.30;;;;;;5132346;27;20582;-72
2021/05/10 05:22:40;;;;;;;17.03;15.27;;;16.20;91.50;;;;;;5132671;27;20396;-71
2021/05/10 05:25:08;;;;;;;14.73;13.40;;;16.40;91.20;;;;;;5133436;27;20121;-70
2021/05/10 05:27:34;;;;;;;14.67;13.27;;;16.50;91.00;;;;;;5132363;27;20051;-71
2021/05/10 05:30:04;;;;;;;14.60;13.10;;;16.60;90.80;;;;;;5132922;27;20051;-71
2021/05/10 05:32:32;;;;;;;13.43;11.93;;;16.60;90.90;;;;;;5133127;27;20448;-71
2021/05/10 05:34:58;;;;;;;15.07;13.53;;;16.90;90.90;;;;;;5132182;27;20510;-71
2021/05/10 05:37:24;;;;;;;11.97;10.77;;;17.30;90.40;;;;;;5132822;27;20087;-71
2021/05/10 05:39:50;;;;;;;9.90;9.00;;;17.40;89.80;;;;;;5132969;27;20047;-71
2021/05/10 05:42:15;;;;;;;11.00;9.77;;;17.40;89.10;;;;;;5131653;27;20402;-71
2021/05/10 05:44:45;;;;;;;11.13;9.10;;;17.40;88.90;;;;;;5132543;27;20043;-71
2021/05/10 05:47:16;;;;;;;6.83;6.13;;;17.60;88.20;;;;;;5132027;27;20042;-71
2021/05/10 05:49:42;;;;;;;7.03;3.60;;;17.80;87.50;;;;;;5132680;27;20043;-71
2021/05/10 05:52:07;;;;;;;4.27;2.40;;;18.00;85.50;;;;;;5132868;27;20487;-71
2021/05/10 05:54:33;;;;;;;5.47;2.10;;;18.30;83.00;;;;;;5131720;27;20055;-71
2021/05/10 05:56:59;;;;;;;2.43;1.90;;;18.70;80.90;;;;;;5131470;27;20519;-71
2021/05/10 05:59:25;;;;;;;4.90;1.83;;;19.10;78.80;;;;;;5131967;27;20194;-71
2021/05/10 06:01:51;;;;;;;5.07;1.77;;;19.60;76.80;;;;;;5131321;27;20047;-71
2021/05/10 06:04:16;;;;;;;4.67;1.87;;;20.10;73.90;;;;;;5132216;27;20047;-71
2021/05/10 06:06:42;;;;;;;5.73;2.13;;;20.40;71.70;;;;;;5132128;27;20501;-71
2021/05/10 06:09:09;;;;;;;3.37;1.93;;;20.60;70.60;;;;;;5131562;27;20047;-70
2021/05/10 06:11:36;;;;;;;3.57;1.80;;;20.70;69.60;;;;;;5132197;27;20043;-71
2021/05/10 06:14:02;;;;;;;5.13;1.80;;;20.60;68.10;;;;;;5132239;27;20055;-71
2021/05/10 06:16:29;;;;;;;4.50;1.80;;;20.50;67.60;;;;;;5131440;27;20051;-71
2021/05/10 06:18:56;;;;;;;5.97;1.70;;;20.40;67.30;;;;;;5132118;28;20144;-71
2021/05/10 06:21:22;;;;;;;5.07;1.50;;;20.30;66.60;;;;;;5132248;28;20138;-71
2021/05/10 06:23:49;;;;;;;5.37;2.03;;;20.30;65.50;;;;;;5131436;28;20134;-71
2021/05/10 06:26:15;;;;;;;3.30;1.47;;;20.30;65.30;;;;;;5132203;28;20051;-71
2021/05/10 06:28:41;;;;;;;11.37;1.60;;;20.40;64.70;;;;;;5132097;27;20050;-72
2021/05/10 06:31:08;;;;;;;2.77;1.37;;;20.50;63.30;;;;;;5134557;27;20058;-71
2021/05/10 06:33:34;;;;;;;3.37;1.30;;;20.50;62.80;;;;;;5136277;27;20047;-71
2021/05/10 06:36:00;;;;;;;4.07;1.67;;;20.50;61.90;;;;;;5136399;27;20122;-71
2021/05/10 06:38:26;;;;;;;5.40;1.23;;;20.50;61.40;;;;;;5135334;27;20047;-71
2021/05/10 06:40:51;;;;;;;4.53;1.37;;;20.50;61.20;;;;;;5136239;27;20050;-72
2021/05/10 06:43:18;;;;;;;6.00;1.40;;;20.50;61.30;;;;;;5135173;27;20047;-71
2021/05/10 06:45:43;;;;;;;3.53;1.20;;;20.40;60.50;;;;;;5136116;27;20054;-71
2021/05/10 06:48:09;;;;;;;3.70;1.47;;;20.40;60.10;;;;;;5136119;27;20047;-71
2021/05/10 06:50:35;;;;;;;6.17;1.40;;;20.30;59.80;;;;;;5135426;27;20581;-71
2021/05/10 06:53:00;;;;;;;5.67;1.40;;;20.30;59.80;;;;;;5135726;27;20051;-71
2021/05/10 06:55:26;;;;;;;6.03;1.50;;;20.40;60.60;;;;;;5135468;27;20524;-70
2021/05/10 06:57:52;;;;;;;2.80;1.60;;;20.40;59.60;;;;;;5135155;27;20047;-71
2021/05/10 07:00:18;;;;;;;3.57;1.57;;;20.50;59.30;;;;;;5135775;27;20161;-71
2021/05/10 07:02:45;;;;;;;3.07;1.30;;;20.50;59.60;;;;;;5135424;27;20540;-71
2021/05/10 07:05:11;;;;;;;2.97;1.27;;;20.50;59.80;;;;;;5135470;27;20137;-70
2021/05/10 07:07:37;;;;;;;5.07;1.10;;;20.40;59.60;;;;;;5135805;27;20403;-71
2021/05/10 07:10:04;;;;;;;8.33;1.50;;;20.50;59.70;;;;;;5135520;27;20081;-70
2021/05/10 07:12:36;;;;;;;3.83;1.33;;;20.50;59.60;;;;;;5134740;27;20404;-70
2021/05/10 07:15:02;;;;;;;3.60;1.20;;;20.60;59.80;;;;;;5135051;27;20058;-71
2021/05/10 07:17:28;;;;;;;4.20;1.20;;;20.70;59.60;;;;;;5135543;27;20047;-71
2021/05/10 07:19:54;;;;;;;4.17;1.33;;;20.70;59.30;;;;;;5134833;27;20384;-71
2021/05/10 07:22:20;;;;;;;4.40;1.20;;;20.80;59.00;;;;;;5135461;27;20448;-72
2021/05/10 07:24:45;;;;;;;2.07;1.00;;;20.90;58.90;;;;;;5135010;27;20043;-72
2021/05/10 07:27:11;;;;;;;5.17;1.60;;;21.10;58.40;;;;;;5134349;27;20154;-72
2021/05/10 07:29:37;;;;;;;6.23;1.20;;;21.30;57.90;;;;;;5135215;27;20043;-72
2021/05/10 07:32:03;;;;;;;4.87;1.23;;;21.30;57.00;;;;;;5134909;27;20077;-73
2021/05/10 07:34:34;;;;;;;;;;;21.30;57.20;;;;;;5134783;27;20074;-72
2021/05/10 07:37:00;;;;;;;1.77;1.00;;;21.30;56.10;;;;;;5135081;27;20677;-72
2021/05/10 07:39:28;;;;;;;5.00;1.17;;;21.30;58.10;;;;;;5134747;27;20043;-73
2021/05/10 07:41:54;;;;;;;4.50;1.20;;;21.30;58.00;;;;;;5133909;27;20505;-73
2021/05/10 07:44:20;;;;;;;4.30;1.30;;;21.30;57.60;;;;;;5134602;27;20039;-75
2021/05/10 07:46:45;;;;;;;6.80;1.53;;;21.20;57.90;;;;;;5134215;27;20143;-73
2021/05/10 07:49:11;;;;;;;3.60;1.60;;;21.20;58.30;;;;;;5135001;27;20578;-72
2021/05/10 07:51:37;;;;;;;5.30;2.00;;;21.20;59.10;;;;;;5133522;27;20136;-72
2021/05/10 07:54:03;;;;;;;2.37;1.20;;;21.20;59.90;;;;;;5133532;27;20046;-72
2021/05/10 07:56:30;;;;;;;3.20;0.60;;;21.30;59.90;;;;;;5134314;27;20054;-71
2021/05/10 07:58:58;;;;;;;3.47;0.67;;;21.30;58.90;;;;;;5134440;27;20117;-71
2021/05/10 08:01:24;;;;;;;1.70;0.40;;;21.30;58.30;;;;;;5133962;27;20044;-73
2021/05/10 08:03:49;;;;;;;4.20;0.47;;;21.20;58.40;;;;;;5134643;27;20059;-71
2021/05/10 08:06:16;;;;;;;3.80;0.53;;;21.10;57.80;;;;;;5134611;27;20111;-72
2021/05/10 08:08:43;;;;;;;0.40;0.30;;;20.90;58.20;;;;;;5132504;27;20470;-72
2021/05/10 08:11:08;;;;;;;1.27;0.20;;;20.60;58.20;;;;;;5134286;27;20122;-71
2021/05/10 08:13:34;;;;;;;0.27;0.27;;;20.40;58.50;;;;;;5134101;27;20074;-72
2021/05/10 08:16:00;;;;;;;1.70;0.40;;;20.10;58.80;;;;;;5133659;27;20070;-72
2021/05/10 08:18:26;;;;;;;0.83;0.30;;;19.90;59.50;;;;;;5134206;27;20047;-72
2021/05/10 08:20:56;;;;;;;1.33;1.03;;;19.70;59.60;;;;;;5133933;27;20134;-72
2021/05/10 08:23:23;;;;;;;0.73;0.33;;;19.60;60.10;;;;;;5133140;27;20061;-71
2021/05/10 08:25:49;;;;;;;1.23;0.30;;;19.50;60.40;;;;;;5133941;27;20491;-74
2021/05/10 08:28:15;;;;;;;1.60;0.40;;;19.40;60.90;;;;;;5133445;27;20055;-73
2021/05/10 08:30:41;;;;;;;1.63;0.40;;;19.40;61.30;;;;;;5133015;27;20511;-72
2021/05/10 08:33:07;;;;;;;0.87;0.30;;;19.30;61.60;;;;;;5134396;27;20073;-73
2021/05/10 08:35:32;;;;;;;2.10;0.60;;;19.30;62.10;;;;;;5134107;27;20058;-73
2021/05/10 08:38:02;;;;;;;0.30;0.30;;;19.30;62.40;;;;;;5132846;27;20100;-72
2021/05/10 08:40:29;;;;;;;2.03;0.37;;;19.40;62.70;;;;;;5133691;27;20047;-73
2021/05/10 08:42:55;;;;;;;2.93;0.37;;;19.50;63.70;;;;;;5132851;27;20077;-73
2021/05/10 08:45:23;;;;;;;0.80;0.50;;;19.60;62.70;;;;;;5133400;27;20511;-73
2021/05/10 08:47:49;;;;;;;1.23;0.40;;;19.70;62.50;;;;;;5133630;27;20476;-73
2021/05/10 08:50:15;;;;;;;0.73;0.43;;;19.80;62.40;;;;;;5132757;27;20096;-73
2021/05/10 08:52:42;;;;;;;1.73;0.53;;;19.80;62.10;;;;;;5132796;27;20043;-73
2021/05/10 08:55:12;;;;;;;1.23;0.50;;;19.80;62.10;;;;;;5133510;27;20204;-73
2021/05/10 08:57:38;;;;;;;0.70;0.70;;;19.90;62.50;;;;;;5132643;27;20055;-73
2021/05/10 09:00:04;;;;;;;1.17;0.67;;;19.90;62.40;;;;;;5133414;27;20058;-73
2021/05/10 09:02:31;;;;;;;1.57;0.57;;;19.90;62.10;;;;;;5133350;27;20043;-73
2021/05/10 09:05:13;;;;;;;2.60;0.70;;;19.90;62.20;;;;;;5132347;27;20116;-73
2021/05/10 09:07:39;;;;;;;4.20;0.80;;;19.80;61.60;;;;;;5133442;27;20050;-73
2021/05/10 09:10:11;;;;;;;1.27;0.70;;;19.70;62.20;;;;;;5133344;27;20079;-73
2021/05/10 09:12:44;;;;;;;;;;;19.70;62.80;;;;;;5132925;27;20054;-73
2021/05/10 09:15:28;;;;;;;1.23;0.87;;;19.70;62.90;;;;;;5133289;27;19919;-72
2021/05/10 09:17:55;;;;;;;1.10;0.60;;;19.70;63.10;;;;;;5132820;27;20538;-72
2021/05/10 09:20:23;;;;;;;1.10;0.57;;;19.70;63.30;;;;;;5132821;27;20043;-71
2021/05/10 09:22:54;;;;;;;2.70;1.00;;;19.70;63.30;;;;;;5133166;27;20076;-71
2021/05/10 09:25:27;;;;;;;2.95;0.95;;;19.60;63.40;;;;;;5132226;27;20919;-71
2021/05/10 09:28:12;;;;;;;3.73;1.20;;;19.50;63.50;;;;;;5132918;27;20047;-71
2021/05/10 09:30:40;;;;;;;3.63;0.93;;;19.30;63.90;;;;;;5132825;27;20047;-71
2021/05/10 09:33:06;;;;;;;1.87;0.90;;;19.30;64.40;;;;;;5131119;27;20126;-71
2021/05/10 09:35:32;;;;;;;2.33;0.80;;;19.30;64.40;;;;;;5133057;27;20139;-71
2021/05/10 09:38:07;;;;;;;1.03;0.73;;;19.40;64.40;;;;;;5131598;27;20051;-71
2021/05/10 09:40:42;;;;;;;1.30;0.93;;;19.60;64.40;;;;;;5132132;27;20057;-71
2021/05/10 09:43:09;;;;;;;2.23;1.07;;;19.80;64.20;;;;;;5133061;27;20123;-71
2021/05/10 09:45:37;;;;;;;4.20;1.50;;;19.80;63.60;;;;;;5132505;27;20048;-71
2021/05/10 09:48:06;;;;;;;1.07;0.90;;;19.90;63.80;;;;;;5132104;27;20046;-71
2021/05/10 09:50:43;;;;;;;3.97;1.20;;;19.80;63.70;;;;;;5132610;27;20069;-71
2021/05/10 09:53:13;;;;;;;3.47;1.10;;;19.60;63.90;;;;;;5132255;27;20043;-71
2021/05/10 09:56:03;;;;;;;3.08;1.08;;;19.60;64.60;;;;;;5132586;27;20047;-68
2021/05/10 09:58:39;;;;;;;3.03;1.30;;;19.50;64.50;;;;;;5131901;27;20130;-71
2021/05/10 10:01:05;;;;;;;2.63;1.33;;;19.40;64.30;;;;;;5131624;27;20104;-71
2021/05/10 10:03:34;;;;;;;5.70;1.27;;;19.40;64.50;;;;;;5132307;27;20047;-71
2021/05/10 10:06:03;;;;;;;2.40;1.30;;;19.50;64.30;;;;;;5132440;27;20051;-70
2021/05/10 10:08:29;;;;;;;5.80;1.40;;;19.50;64.10;;;;;;5131766;27;20047;-71
2021/05/10 10:10:56;;;;;;;2.13;1.20;;;19.50;64.10;;;;;;5132318;27;20043;-71
2021/05/10 10:13:22;;;;;;;2.83;1.30;;;19.40;63.90;;;;;;5132259;27;20055;-71
2021/05/10 10:15:48;;;;;;;1.73;0.90;;;19.20;64.20;;;;;;5131630;27;20172;-71
2021/05/10 10:18:21;;;;;;;2.20;1.10;;;19.10;64.30;;;;;;5132374;27;20141;-71
2021/05/10 10:20:49;;;;;;;1.40;0.80;;;18.70;64.90;;;;;;5132017;28;20096;-71
2021/05/10 10:23:16;;;;;;;1.83;0.90;;;18.20;66.10;;;;;;5131547;28;20057;-71
2021/05/10 10:25:43;;;;;;;1.87;0.77;;;17.70;68.00;;;;;;5132470;28;20068;-71
2021/05/10 10:28:12;;;;;;;1.43;0.97;;;17.30;68.80;;;;;;5131296;28;20054;-71
2021/05/10 10:30:45;;;;;;;2.10;1.20;;;17.00;69.50;;;;;;5131793;28;20051;-71
2021/05/10 10:33:18;;;;;;;1.63;0.83;;;16.60;70.50;;;;;;5132129;27;20499;-71
2021/05/10 10:35:45;;;;;;;1.13;0.97;;;16.40;71.20;;;;;;5131602;28;20051;-71
2021/05/10 10:38:12;;;;;;;1.47;1.00;;;16.10;72.20;;;;;;5132566;28;20051;-70
2021/05/10 10:40:39;;;;;;;1.47;0.90;;;15.90;73.20;;;;;;5132511;28;20134;-71
2021/05/10 10:43:21;;;;;;;1.53;0.80;;;15.90;74.20;;;;;;5131177;28;20051;-71
2021/05/10 10:46:26;;;;;;;1.57;1.00;;;15.80;74.90;;;;;;5131853;28;20128;-71
2021/05/10 10:48:55;;;;;;;1.97;1.20;;;15.80;75.90;;;;;;5131552;27;20138;-71
2021/05/10 10:51:21;;;;;;;3.30;1.23;;;15.80;75.20;;;;;;5131357;28;20126;-71
2021/05/10 10:53:54;;;;;;;1.40;0.93;;;15.90;75.60;;;;;;5131755;28;20058;-71
2021/05/10 10:56:59;;;;;;;1.60;1.13;;;15.90;75.70;;;;;;5131814;28;20059;-71
2021/05/10 10:59:27;;;;;;;2.87;1.17;;;16.10;76.20;;;;;;5131844;28;20043;-71
2021/05/10 11:01:53;;;;;;;2.00;1.20;;;16.10;75.80;;;;;;5131636;28;20522;-70
2021/05/10 11:04:27;;;;;;;1.00;0.90;;;16.10;75.80;;;;;;5130841;28;20039;-71
2021/05/10 11:06:53;;;;;;;2.03;1.13;;;16.20;76.10;;;;;;5131862;28;20047;-70
2021/05/10 11:09:46;;;;;;;1.90;1.17;;;16.30;76.10;;;;;;5131924;28;20043;-71
2021/05/10 11:12:47;;;;;;;1.10;0.93;;;16.60;76.30;;;;;;5131398;28;20067;-70
2021/05/10 11:15:34;;;;;;;2.03;1.30;;;16.70;76.00;;;;;;5131657;27;20058;-70
2021/05/10 11:18:01;;;;;;;1.30;1.00;;;16.80;75.60;;;;;;5123572;27;20050;-70
2021/05/10 11:20:40;;;;;;;2.13;1.03;;;16.90;75.60;;;;;;5135421;27;20047;-71
2021/05/10 11:23:24;;;;;;;2.80;1.00;;;17.00;75.30;;;;;;5135529;27;20047;-71
2021/05/10 11:25:51;;;;;;;1.90;1.00;;;17.00;75.20;;;;;;5134880;27;20067;-71
2021/05/10 11:28:29;;;;;;;2.07;1.20;;;17.00;74.80;;;;;;5135508;27;20054;-71
2021/05/10 11:30:55;;;;;;;2.10;1.20;;;17.00;74.90;;;;;;5135209;27;20088;-71
2021/05/10 11:33:52;;;;;;;2.60;0.90;;;17.00;74.70;;;;;;5134587;27;20103;-71
2021/05/10 11:36:20;;;;;;;1.70;1.00;;;17.10;74.70;;;;;;5135202;27;20043;-70
2021/05/10 11:38:53;;;;;;;1.80;1.30;;;17.20;74.50;;;;;;5134296;27;20078;-71
2021/05/10 11:41:26;;;;;;;1.73;1.10;;;17.20;74.50;;;;;;5135335;27;20051;-71
2021/05/10 11:43:56;;;;;;;3.13;1.10;;;17.30;74.40;;;;;;5134641;27;20043;-71
2021/05/10 11:46:43;;;;;;;1.43;1.03;;;17.30;74.20;;;;;;5134331;27;20070;-71
2021/05/10 11:49:11;;;;;;;3.37;1.30;;;17.40;74.00;;;;;;5135181;27;20139;-75
2021/05/10 11:51:38;;;;;;;1.10;1.00;;;17.50;74.00;;;;;;5129145;27;20039;-79
2021/05/10 11:54:10;;;;;;;1.93;1.50;;;17.60;73.90;;;;;;5133856;27;20054;-80
2021/05/10 11:56:45;;;;;;;2.10;1.50;;;17.60;73.30;;;;;;5134233;27;20376;-72
2021/05/10 11:59:32;;;;;;;3.17;1.50;;;17.60;73.10;;;;;;5134662;27;20402;-72
2021/05/10 12:01:59;;;;;;;1.73;1.23;;;17.70;73.10;;;;;;5133742;27;20096;-71
2021/05/10 12:04:27;;;;;;;2.53;1.20;;;17.80;72.70;;;;;;5134572;27;20051;-71
2021/05/10 12:06:54;;;;;;;2.53;1.40;;;17.80;72.60;;;;;;5133400;27;20516;-71
2021/05/10 12:09:40;;;;;;;3.43;1.40;;;17.80;72.50;;;;;;5134299;27;20122;-71
2021/05/10 12:12:19;;;;;;;2.60;1.20;;;17.80;72.20;;;;;;5134648;27;20047;-70
2021/05/10 12:14:47;;;;;;;2.57;1.40;;;17.80;72.10;;;;;;5133542;27;20055;-70
2021/05/10 12:17:15;;;;;;;2.20;1.27;;;17.70;72.10;;;;;;5134180;27;20055;-71
2021/05/10 12:19:56;;;;;;;4.30;1.43;;;17.70;72.00;;;;;;5134234;27;20051;-71
2021/05/10 12:22:27;;;;;;;4.30;1.43;;;17.60;72.30;;;;;;5133342;27;20042;-72
2021/05/10 12:25:07;;;;;;;2.58;1.25;;;17.70;72.40;;;;;;5133817;27;20829;-70
2021/05/10 12:27:44;;;;;;;3.20;1.50;;;17.70;72.30;;;;;;5133942;27;20047;-70
2021/05/10 12:30:20;;;;;;;2.23;1.30;;;17.70;72.10;;;;;;5133422;27;20047;-68
2021/05/10 12:32:50;;;;;;;3.17;1.80;;;17.70;72.20;;;;;;5134074;27;20043;-70
2021/05/10 12:35:20;;;;;;;2.13;1.30;;;17.60;72.30;;;;;;5132978;27;20047;-71
2021/05/10 12:37:48;;;;;;;2.47;1.33;;;17.60;72.20;;;;;;5133712;27;20516;-71
2021/05/10 12:40:16;;;;;;;3.37;1.10;;;17.40;71.60;;;;;;5133436;27;20075;-67
2021/05/10 12:42:42;;;;;;;5.70;2.10;;;17.30;71.10;;;;;;5132976;27;20043;-71
2021/05/10 12:45:13;;;;;;;6.97;1.47;;;17.20;70.80;;;;;;5133725;27;20043;-70
2021/05/10 12:47:44;;;;;;;4.90;1.58;;;17.10;70.30;;;;;;5133760;27;20039;-70
2021/05/10 12:50:38;;;;;;;3.25;1.50;;;17.10;70.40;;;;;;5132921;27;20050;-71
2021/05/10 12:53:05;;;;;;;5.17;1.90;;;17.00;71.50;;;;;;5133385;27;20050;-72
2021/05/10 12:55:33;;;;;;;4.17;1.77;;;16.80;72.00;;;;;;5133001;27;20456;-71
2021/05/10 12:57:59;;;;;;;4.70;1.73;;;16.70;72.80;;;;;;5132578;27;20070;-71